createdAt,value
2017-09-25T00:01:29.585Z,16.80
2017-09-25T00:03:57.061Z,13.67
2017-09-25T00:06:25.301Z,16.97
2017-09-25T00:08:52.809Z,17.50
2017-09-25T00:11:20.291Z,14.60
2017-09-25T00:13:47.766Z,18.10
2017-09-25T00:16:15.262Z,13.90
2017-09-25T00:18:43.498Z,16.37
2017-09-25T00:21:10.981Z,10.87
2017-09-25T00:23:38.475Z,13.80
2017-09-25T00:26:05.973Z,11.20
2017-09-25T00:28:33.450Z,12.30
2017-09-25T00:31:00.949Z,13.00
2017-09-25T00:33:28.421Z,14.73
2017-09-25T00:35:55.897Z,14.07
2017-09-25T00:38:24.161Z,9.73
2017-09-25T00:40:51.630Z,11.07
2017-09-25T00:43:19.106Z,18.47
2017-09-25T00:45:46.597Z,10.73
2017-09-25T00:48:14.073Z,9.57
2017-09-25T00:50:41.545Z,12.50
2017-09-25T01:06:42.305Z,13.87
2017-09-25T01:09:09.777Z,23.60
2017-09-25T01:11:38.018Z,17.07
2017-09-25T01:14:05.525Z,25.27
2017-09-25T01:16:33.001Z,14.80
2017-09-25T01:19:00.490Z,14.60
2017-09-25T01:21:27.977Z,9.20
2017-09-25T01:23:55.473Z,10.20
2017-09-25T01:26:22.945Z,10.43
2017-09-25T01:28:51.205Z,13.60
2017-09-25T01:31:18.677Z,9.20
2017-09-25T01:33:46.145Z,9.57
2017-09-25T01:36:14.403Z,9.33
2017-09-25T01:38:41.878Z,10.67
2017-09-25T01:41:09.353Z,9.03
2017-09-25T01:43:36.850Z,9.43
2017-09-25T01:46:04.322Z,12.00
2017-09-25T01:48:31.793Z,19.43
2017-09-25T01:50:59.550Z,10.17
2017-09-25T01:53:27.026Z,11.37
2017-09-25T01:55:54.501Z,11.80
2017-09-25T01:58:21.996Z,9.80
2017-09-25T02:00:49.469Z,16.37
2017-09-25T02:03:16.937Z,9.53
2017-09-25T02:05:44.434Z,13.40
2017-09-25T02:08:11.909Z,11.50
2017-09-25T02:10:40.153Z,10.70
2017-09-25T02:13:07.645Z,10.73
2017-09-25T02:15:35.885Z,11.20
2017-09-25T02:18:03.358Z,9.43
2017-09-25T02:20:30.854Z,11.47
2017-09-25T02:22:58.325Z,14.93
2017-09-25T02:25:26.577Z,10.83
2017-09-25T02:27:54.072Z,10.90
2017-09-25T02:30:21.549Z,14.07
2017-09-25T02:32:49.021Z,9.90
2017-09-25T02:35:16.513Z,13.97
2017-09-25T02:37:43.990Z,8.70
2017-09-25T02:40:11.470Z,10.53
2017-09-25T02:42:38.960Z,10.60
2017-09-25T02:45:07.197Z,9.70
2017-09-25T02:47:34.677Z,13.30
2017-09-25T02:50:02.176Z,11.60
2017-09-25T02:52:29.649Z,9.40
2017-09-25T02:54:57.121Z,16.57
2017-09-25T02:57:24.613Z,12.27
2017-09-25T02:59:52.089Z,10.43
2017-09-25T03:02:20.330Z,11.70
2017-09-25T03:04:47.825Z,12.33
2017-09-25T03:07:16.066Z,18.70
2017-09-25T03:09:43.541Z,14.50
2017-09-25T03:12:12.018Z,10.20
2017-09-25T03:14:39.489Z,11.60
2017-09-25T03:17:07.729Z,13.73
2017-09-25T03:19:35.267Z,13.50
2017-09-25T03:22:02.969Z,9.93
2017-09-25T03:24:31.619Z,10.87
2017-09-25T03:26:59.118Z,9.73
2017-09-25T03:29:27.358Z,11.73
2017-09-25T03:31:55.600Z,13.47
2017-09-25T03:34:23.093Z,10.27
2017-09-25T03:36:50.568Z,13.20
2017-09-25T03:39:18.042Z,19.50
2017-09-25T03:41:46.309Z,12.97
2017-09-25T03:44:13.781Z,13.43
2017-09-25T03:46:42.022Z,11.63
2017-09-25T03:49:09.651Z,10.57
2017-09-25T03:51:37.134Z,16.37
2017-09-25T03:54:04.610Z,13.93
2017-09-25T03:56:32.106Z,11.50
2017-09-25T03:58:59.582Z,11.67
2017-09-25T04:01:27.071Z,11.77
2017-09-25T04:03:54.569Z,14.00
2017-09-25T04:06:22.047Z,19.73
2017-09-25T04:08:49.530Z,11.37
2017-09-25T04:11:17.022Z,9.97
2017-09-25T04:13:44.503Z,13.07
2017-09-25T04:16:11.981Z,11.27
2017-09-25T04:18:39.698Z,10.87
2017-09-25T04:21:07.941Z,12.80
2017-09-25T04:23:35.413Z,10.20
2017-09-25T04:26:02.906Z,10.83
2017-09-25T04:28:31.141Z,9.40
2017-09-25T04:30:58.622Z,9.47
2017-09-25T04:33:26.904Z,12.07
2017-09-25T04:35:55.165Z,17.07
2017-09-25T04:38:22.641Z,12.70
2017-09-25T04:40:50.901Z,12.60
2017-09-25T04:43:18.373Z,11.53
2017-09-25T04:45:46.613Z,10.63
2017-09-25T04:48:14.114Z,14.03
2017-09-25T04:50:41.589Z,13.33
2017-09-25T04:53:09.062Z,20.80
2017-09-25T04:55:36.557Z,12.30
2017-09-25T04:58:04.033Z,10.07
2017-09-25T05:00:32.281Z,23.50
2017-09-25T05:02:59.773Z,11.17
2017-09-25T05:05:28.009Z,11.20
2017-09-25T05:07:55.496Z,11.50
2017-09-25T05:10:23.753Z,11.03
2017-09-25T05:12:51.225Z,17.07
2017-09-25T05:15:19.473Z,27.27
2017-09-25T05:17:46.976Z,15.30
2017-09-25T05:20:14.458Z,21.93
2017-09-25T05:22:41.941Z,24.43
2017-09-25T05:25:09.437Z,24.90
2017-09-25T05:27:37.677Z,20.43
2017-09-25T05:30:05.159Z,16.60
2017-09-25T05:32:33.686Z,15.67
2017-09-25T05:35:01.157Z,17.70
2017-09-25T05:37:28.630Z,13.17
2017-09-25T05:39:56.133Z,12.87
2017-09-25T05:42:23.609Z,28.47
2017-09-25T05:44:51.085Z,25.93
2017-09-25T05:47:18.580Z,32.73
2017-09-25T05:49:47.106Z,21.70
2017-09-25T05:52:14.581Z,23.23
2017-09-25T05:54:42.077Z,32.30
2017-09-25T05:57:10.330Z,30.43
2017-09-25T05:59:37.818Z,19.70
2017-09-25T06:02:06.081Z,28.20
2017-09-25T06:04:33.571Z,12.97
2017-09-25T06:07:01.062Z,17.30
2017-09-25T06:09:28.577Z,24.50
2017-09-25T06:11:56.054Z,19.63
2017-09-25T06:14:23.544Z,21.07
2017-09-25T06:16:51.813Z,22.03
2017-09-25T06:19:19.292Z,20.20
2017-09-25T06:21:46.766Z,19.70
2017-09-25T06:24:15.029Z,22.10
2017-09-25T06:26:42.505Z,20.23
2017-09-25T06:29:10.754Z,20.83
2017-09-25T06:31:38.256Z,21.87
2017-09-25T06:34:05.733Z,25.30
2017-09-25T06:36:33.205Z,19.50
2017-09-25T06:39:00.701Z,15.43
2017-09-25T06:41:29.174Z,18.70
2017-09-25T06:43:56.754Z,18.20
2017-09-25T06:46:25.010Z,25.07
2017-09-25T06:48:52.485Z,16.50
2017-09-25T06:51:21.001Z,22.87
2017-09-25T06:53:48.501Z,12.97
2017-09-25T06:56:15.989Z,21.93
2017-09-25T06:58:43.481Z,15.33
2017-09-25T07:01:10.981Z,10.13
2017-09-25T07:03:38.458Z,11.43
2017-09-25T07:06:06.708Z,12.00
2017-09-25T07:08:34.201Z,11.67
2017-09-25T07:11:01.681Z,11.77
2017-09-25T07:13:29.161Z,17.60
2017-09-25T07:15:56.701Z,11.63
2017-09-25T07:18:24.173Z,11.23
2017-09-25T07:20:51.645Z,11.27
2017-09-25T07:23:19.373Z,20.47
2017-09-25T07:25:46.841Z,11.67
2017-09-25T07:28:14.322Z,12.07
2017-09-25T07:30:41.817Z,15.93
2017-09-25T07:33:09.291Z,9.50
2017-09-25T07:35:36.784Z,10.43
2017-09-25T07:38:04.277Z,8.80
2017-09-25T07:40:32.521Z,10.40
2017-09-25T07:42:59.994Z,9.97
2017-09-25T07:45:27.562Z,10.97
2017-09-25T07:47:56.226Z,9.17
2017-09-25T07:50:23.952Z,9.93
2017-09-25T07:52:51.485Z,11.07
2017-09-25T07:55:18.958Z,9.37
2017-09-25T07:57:46.610Z,11.33
2017-09-25T08:00:14.109Z,13.13
2017-09-25T08:02:41.581Z,10.43
2017-09-25T08:05:09.063Z,10.57
2017-09-25T08:07:37.329Z,17.80
2017-09-25T08:10:04.821Z,13.40
2017-09-25T08:12:32.290Z,9.60
2017-09-25T08:14:59.781Z,9.00
2017-09-25T08:17:27.250Z,9.03
2017-09-25T08:19:54.722Z,8.50
2017-09-25T08:22:22.981Z,11.33
2017-09-25T08:24:50.454Z,8.47
2017-09-25T08:27:18.697Z,8.40
2017-09-25T08:29:46.194Z,9.43
2017-09-25T08:32:14.428Z,9.27
2017-09-25T08:34:41.905Z,10.10
2017-09-25T08:37:09.402Z,6.60
2017-09-25T08:39:36.870Z,6.47
2017-09-25T08:42:04.347Z,6.83
2017-09-25T08:44:32.098Z,6.50
2017-09-25T08:46:59.688Z,5.93
2017-09-25T08:49:27.157Z,6.20
2017-09-25T08:51:54.654Z,6.33
2017-09-25T08:54:22.129Z,6.27
2017-09-25T08:56:49.597Z,6.43
2017-09-25T08:59:17.092Z,7.93
2017-09-25T09:01:44.562Z,7.53
2017-09-25T09:04:12.798Z,7.73
2017-09-25T09:06:40.289Z,5.93
2017-09-25T09:09:08.529Z,5.63
2017-09-25T09:11:36.001Z,7.93
2017-09-25T09:14:03.494Z,4.70
2017-09-25T09:16:30.961Z,5.37
2017-09-25T09:18:58.458Z,4.80
2017-09-25T09:21:25.956Z,5.57
2017-09-25T09:23:54.198Z,4.77
2017-09-25T09:26:21.674Z,4.30
2017-09-25T09:28:49.170Z,3.87
2017-09-25T09:31:16.674Z,5.17
2017-09-25T09:33:44.186Z,4.73
2017-09-25T09:36:11.718Z,5.27
2017-09-25T09:38:39.961Z,6.57
2017-09-25T09:41:07.434Z,4.50
2017-09-25T09:43:35.150Z,3.60
2017-09-25T09:46:02.625Z,4.60
2017-09-25T09:48:30.098Z,3.93
2017-09-25T09:50:57.630Z,4.00
2017-09-25T09:53:25.135Z,3.50
2017-09-25T09:55:53.415Z,2.97
2017-09-25T09:58:21.706Z,8.83
2017-09-25T10:00:49.214Z,4.80
2017-09-25T10:03:16.724Z,4.40
2017-09-25T10:05:44.256Z,3.73
2017-09-25T10:08:11.729Z,3.60
2017-09-25T10:10:39.965Z,3.90
2017-09-25T10:13:07.494Z,3.90
2017-09-25T10:15:35.003Z,4.93
2017-09-25T10:18:02.510Z,3.60
2017-09-25T10:20:30.050Z,6.23
2017-09-25T10:22:57.558Z,4.07
2017-09-25T10:25:25.066Z,5.57
2017-09-25T10:27:52.606Z,4.77
2017-09-25T10:30:20.878Z,4.40
2017-09-25T10:32:49.179Z,4.83
2017-09-25T10:35:16.710Z,4.40
2017-09-25T10:37:44.982Z,4.60
2017-09-25T10:40:13.254Z,4.60
2017-09-25T10:42:40.786Z,5.40
2017-09-25T10:45:08.272Z,4.97
2017-09-25T10:47:35.744Z,5.10
2017-09-25T10:50:04.001Z,4.57
2017-09-25T10:52:31.478Z,6.43
2017-09-25T10:54:59.725Z,6.83
2017-09-25T10:57:27.453Z,5.47
2017-09-25T10:59:54.921Z,6.50
2017-09-25T11:02:22.389Z,6.87
2017-09-25T11:04:49.873Z,6.20
2017-09-25T11:07:17.346Z,5.73
2017-09-25T11:09:45.598Z,4.30
2017-09-25T11:12:13.088Z,4.17
2017-09-25T11:14:40.557Z,4.47
2017-09-25T11:17:08.029Z,4.97
2017-09-25T11:19:35.565Z,4.43
2017-09-25T11:22:03.040Z,6.00
2017-09-25T11:24:30.521Z,7.73
2017-09-25T11:26:58.013Z,7.23
2017-09-25T11:29:26.249Z,7.13
2017-09-25T11:31:53.720Z,6.27
2017-09-25T11:34:21.214Z,5.00
2017-09-25T11:36:48.685Z,5.87
2017-09-25T11:39:16.156Z,5.50
2017-09-25T11:41:43.645Z,6.27
2017-09-25T11:44:11.113Z,6.77
2017-09-25T11:46:38.581Z,7.23
2017-09-25T11:49:06.076Z,5.73
2017-09-25T11:51:33.558Z,9.10
2017-09-25T11:54:01.029Z,6.70
2017-09-25T11:56:28.525Z,6.30
2017-09-25T11:58:56.757Z,5.20
2017-09-25T12:01:24.225Z,5.10
2017-09-25T12:03:51.717Z,4.17
2017-09-25T12:06:19.957Z,4.23
2017-09-25T12:08:47.433Z,4.27
2017-09-25T12:11:15.693Z,4.40
2017-09-25T12:13:43.165Z,5.37
2017-09-25T12:16:10.634Z,4.63
2017-09-25T12:18:38.893Z,4.83
2017-09-25T12:21:06.377Z,6.50
2017-09-25T12:23:33.849Z,6.33
2017-09-25T12:26:01.344Z,6.07
2017-09-25T12:28:28.833Z,6.43
2017-09-25T12:30:57.070Z,4.80
2017-09-25T12:33:24.561Z,5.33
2017-09-25T12:35:52.886Z,4.13
2017-09-25T12:38:20.472Z,5.13
2017-09-25T12:40:47.969Z,5.97
2017-09-25T12:43:16.206Z,5.17
2017-09-25T12:45:44.814Z,5.60
2017-09-25T12:48:13.068Z,8.43
2017-09-25T12:50:40.542Z,5.43
2017-09-25T12:53:08.776Z,6.67
2017-09-25T12:55:36.264Z,6.23
2017-09-25T12:58:03.734Z,7.80
2017-09-25T13:00:31.969Z,5.70
2017-09-25T13:02:59.466Z,6.00
2017-09-25T13:05:27.701Z,7.20
2017-09-25T13:07:55.190Z,6.60
2017-09-25T13:10:22.681Z,5.97
2017-09-25T13:12:50.152Z,6.07
2017-09-25T13:15:17.625Z,5.77
2017-09-25T13:17:45.118Z,6.93
2017-09-25T13:20:13.358Z,7.13
2017-09-25T13:22:40.841Z,7.33
2017-09-25T13:25:08.328Z,6.70
2017-09-25T13:27:36.565Z,6.70
2017-09-25T13:30:04.040Z,6.63
2017-09-25T13:32:31.541Z,9.20
2017-09-25T13:34:59.017Z,7.03
2017-09-25T13:37:26.493Z,6.50
2017-09-25T13:39:53.982Z,6.20
2017-09-25T13:42:22.221Z,7.10
2017-09-25T13:44:49.701Z,8.23
2017-09-25T13:47:17.189Z,6.40
2017-09-25T13:49:44.663Z,6.70
2017-09-25T13:52:12.139Z,7.13
2017-09-25T13:54:39.673Z,5.70
2017-09-25T13:57:07.147Z,5.03
2017-09-25T14:04:40.580Z,5.53
2017-09-25T14:07:08.065Z,5.10
2017-09-25T14:09:35.538Z,6.80
2017-09-25T14:12:03.777Z,8.23
2017-09-25T14:14:31.265Z,12.20
2017-09-25T14:16:58.733Z,6.50
2017-09-25T14:19:26.969Z,6.20
2017-09-25T14:21:54.466Z,5.63
2017-09-25T14:24:22.700Z,6.53
2017-09-25T14:26:50.177Z,6.10
2017-09-25T14:29:17.901Z,6.10
2017-09-25T14:31:45.373Z,9.97
2017-09-25T14:34:12.845Z,8.83
2017-09-25T14:36:42.113Z,6.40
2017-09-25T14:39:09.581Z,5.80
2017-09-25T14:41:37.055Z,7.80
2017-09-25T14:44:04.545Z,6.90
2017-09-25T14:46:32.781Z,6.83
2017-09-25T14:49:00.248Z,6.20
2017-09-25T14:51:27.742Z,7.10
2017-09-25T14:53:55.976Z,6.30
2017-09-25T14:56:23.454Z,6.80
2017-09-25T14:58:50.941Z,6.93
2017-09-25T15:01:18.426Z,12.23
2017-09-25T15:03:45.910Z,6.90
2017-09-25T15:06:13.431Z,5.97
2017-09-25T15:08:40.906Z,6.53
2017-09-25T15:11:08.657Z,6.10
2017-09-25T15:13:36.188Z,7.23
2017-09-25T15:16:04.421Z,6.43
2017-09-25T15:18:31.889Z,6.40
2017-09-25T15:20:59.397Z,6.10
2017-09-25T15:23:27.173Z,8.83
2017-09-25T15:25:54.646Z,5.60
2017-09-25T15:28:22.137Z,7.37
2017-09-25T15:30:50.373Z,6.93
2017-09-25T15:33:17.852Z,6.10
2017-09-25T15:35:45.437Z,7.00
2017-09-25T15:38:13.672Z,6.30
2017-09-25T15:40:41.408Z,8.50
2017-09-25T15:43:08.895Z,7.03
2017-09-25T15:45:36.361Z,6.93
2017-09-25T15:48:03.826Z,7.37
2017-09-25T15:50:31.314Z,8.93
2017-09-25T15:52:58.790Z,11.20
2017-09-25T15:55:26.269Z,16.43
2017-09-25T15:57:53.765Z,6.90
2017-09-25T16:00:21.237Z,8.00
2017-09-25T16:02:49.473Z,9.77
2017-09-25T16:05:17.729Z,9.70
2017-09-25T16:07:45.201Z,8.63
2017-09-25T16:10:12.675Z,9.30
2017-09-25T16:12:40.161Z,7.40
2017-09-25T16:15:08.497Z,7.23
2017-09-25T16:17:35.990Z,8.33
2017-09-25T16:20:04.245Z,7.53
2017-09-25T16:22:32.500Z,7.70
2017-09-25T16:24:59.968Z,7.37
2017-09-25T16:27:27.694Z,11.73
2017-09-25T16:29:55.161Z,6.80
2017-09-25T16:32:22.634Z,8.27
2017-09-25T16:34:50.125Z,6.03
2017-09-25T16:37:18.360Z,9.10
2017-09-25T16:39:45.829Z,6.60
2017-09-25T16:42:13.324Z,7.70
2017-09-25T16:44:41.572Z,7.00
2017-09-25T16:47:09.785Z,7.77
2017-09-25T16:49:37.305Z,7.57
2017-09-25T16:52:05.562Z,8.70
2017-09-25T16:54:33.030Z,8.40
2017-09-25T16:57:00.517Z,7.87
2017-09-25T16:59:28.753Z,7.00
2017-09-25T17:01:56.229Z,8.33
2017-09-25T17:04:23.732Z,8.10
2017-09-25T17:06:51.212Z,10.13
2017-09-25T17:09:18.684Z,6.37
2017-09-25T17:11:46.172Z,7.77
2017-09-25T17:14:14.413Z,9.20
2017-09-25T17:16:41.938Z,9.67
2017-09-25T17:19:09.652Z,8.33
2017-09-25T17:21:37.145Z,13.67
2017-09-25T17:24:04.621Z,8.83
2017-09-25T17:26:32.116Z,11.83
2017-09-25T17:28:59.593Z,10.33
2017-09-25T17:31:27.844Z,11.23
2017-09-25T17:33:55.333Z,8.57
2017-09-25T17:36:23.565Z,8.67
2017-09-25T17:38:51.037Z,8.97
2017-09-25T17:41:18.634Z,7.27
2017-09-25T17:43:46.883Z,8.10
2017-09-25T17:46:14.357Z,7.50
2017-09-25T17:48:42.618Z,8.43
2017-09-25T17:51:10.603Z,7.87
2017-09-25T17:53:38.930Z,8.87
2017-09-25T17:56:07.186Z,8.70
2017-09-25T17:58:34.661Z,11.23
2017-09-25T18:01:02.129Z,9.70
2017-09-25T18:03:29.629Z,12.30
2017-09-25T18:05:57.874Z,11.50
2017-09-25T18:08:25.868Z,13.10
2017-09-25T18:10:54.237Z,12.50
2017-09-25T18:13:21.713Z,18.83
2017-09-25T18:15:49.193Z,12.10
2017-09-25T18:18:16.709Z,11.43
2017-09-25T18:20:44.185Z,11.37
2017-09-25T18:23:12.723Z,9.60
2017-09-25T18:25:41.025Z,10.57
2017-09-25T18:28:09.268Z,11.67
2017-09-25T18:30:36.741Z,10.20
2017-09-25T18:33:04.240Z,11.43
2017-09-25T18:35:31.831Z,9.83
2017-09-25T18:38:00.406Z,10.30
2017-09-25T18:40:27.914Z,11.17
2017-09-25T18:42:56.169Z,10.03
2017-09-25T18:45:23.644Z,12.83
2017-09-25T18:47:51.138Z,9.97
2017-09-25T18:50:18.609Z,8.97
2017-09-25T18:52:46.083Z,9.63
2017-09-25T18:55:13.582Z,9.10
2017-09-25T18:57:41.821Z,18.73
2017-09-25T19:00:09.305Z,8.90
2017-09-25T19:02:36.826Z,9.57
2017-09-25T19:05:04.331Z,70.23
2017-09-25T19:07:32.577Z,29.40
2017-09-25T19:10:00.077Z,31.70
2017-09-25T19:12:27.561Z,20.83
2017-09-25T19:14:55.328Z,11.47
2017-09-25T19:17:22.849Z,11.57
2017-09-25T19:19:51.091Z,12.43
2017-09-25T19:22:18.565Z,10.03
2017-09-25T19:24:46.074Z,10.07
2017-09-25T19:27:13.554Z,13.80
2017-09-25T19:29:41.030Z,31.43
2017-09-25T19:32:08.537Z,33.23
2017-09-25T19:34:36.023Z,22.60
2017-09-25T19:37:03.517Z,21.37
2017-09-25T19:39:31.791Z,33.80
2017-09-25T19:42:00.033Z,21.40
2017-09-25T19:44:27.745Z,23.33
2017-09-25T19:46:55.279Z,18.47
2017-09-25T19:49:41.766Z,18.60
2017-09-25T19:52:10.077Z,15.50
2017-09-25T20:08:00.660Z,23.60
2017-09-25T20:10:29.705Z,23.83
2017-09-25T20:12:57.207Z,18.40
2017-09-25T20:15:31.169Z,23.30
2017-09-25T20:17:58.650Z,28.27
2017-09-25T20:20:27.637Z,13.17
2017-09-25T20:22:55.141Z,13.60
2017-09-25T20:25:22.662Z,15.97
2017-09-25T20:27:50.922Z,21.33
2017-09-25T20:30:18.661Z,17.63
2017-09-25T20:32:46.141Z,15.77
2017-09-25T20:35:13.622Z,16.27
2017-09-25T20:37:41.121Z,16.63
2017-09-25T20:40:08.597Z,16.83
2017-09-25T20:42:41.809Z,14.73
2017-09-25T20:45:09.287Z,13.60
2017-09-25T20:47:36.766Z,15.40
2017-09-25T20:50:04.557Z,17.20
2017-09-25T20:52:32.033Z,16.70
2017-09-25T20:54:59.581Z,15.77
2017-09-25T20:57:27.078Z,14.00
2017-09-25T20:59:54.557Z,12.80
2017-09-25T21:02:22.798Z,13.87
2017-09-25T21:04:50.301Z,14.77
2017-09-25T21:07:17.777Z,13.17
2017-09-25T21:09:45.263Z,16.30
2017-09-25T21:12:12.770Z,21.63
2017-09-25T21:14:40.247Z,14.30
2017-09-25T21:17:07.733Z,18.77
2017-09-25T21:19:35.229Z,12.57
2017-09-25T21:22:03.514Z,14.37
2017-09-25T21:24:31.339Z,11.97
2017-09-25T21:40:20.249Z,14.00
2017-09-25T21:42:47.730Z,13.00
2017-09-25T21:45:15.469Z,11.83
2017-09-25T21:47:42.974Z,14.73
2017-09-25T21:50:10.449Z,17.43
2017-09-25T21:52:38.693Z,13.30
2017-09-25T21:55:06.198Z,16.83
2017-09-25T21:57:33.681Z,14.97
2017-09-25T22:00:01.153Z,16.00
2017-09-25T22:02:28.657Z,15.13
2017-09-25T22:04:56.902Z,14.27
2017-09-25T22:07:24.385Z,15.93
2017-09-25T22:09:52.653Z,13.77
2017-09-25T22:12:20.902Z,12.03
2017-09-25T22:14:49.151Z,16.30
2017-09-25T22:17:16.646Z,11.73
2017-09-25T22:19:44.125Z,12.67
2017-09-25T22:22:12.365Z,13.83
2017-09-25T22:24:39.861Z,13.37
2017-09-25T22:27:08.109Z,15.30
2017-09-25T22:29:35.583Z,19.70
2017-09-25T22:32:03.850Z,13.23
2017-09-25T22:34:31.325Z,14.13
2017-09-25T22:36:59.841Z,15.30
2017-09-25T22:39:27.337Z,12.17
2017-09-25T22:41:54.813Z,15.70
2017-09-25T22:44:26.789Z,18.27
2017-09-25T22:46:54.285Z,16.30
2017-09-25T22:49:21.761Z,14.83
2017-09-25T22:51:49.257Z,13.83
2017-09-25T22:54:17.502Z,21.33
2017-09-25T22:56:44.977Z,19.53
2017-09-25T22:59:13.241Z,14.17
2017-09-25T23:01:40.717Z,14.93
2017-09-25T23:04:16.557Z,13.77
2017-09-25T23:06:44.033Z,17.43
2017-09-25T23:09:17.093Z,17.33
2017-09-25T23:11:46.081Z,21.33
2017-09-25T23:14:13.561Z,18.00
2017-09-25T23:16:42.565Z,17.17
2017-09-25T23:19:10.808Z,19.43
2017-09-25T23:21:38.284Z,18.50
2017-09-25T23:24:06.546Z,18.53
2017-09-25T23:26:34.025Z,11.97
2017-09-25T23:29:02.270Z,12.87
2017-09-25T23:31:44.652Z,17.90
2017-09-25T23:34:12.129Z,14.80
2017-09-25T23:36:39.605Z,17.50
2017-09-25T23:39:07.317Z,12.87
2017-09-25T23:41:34.789Z,13.67
2017-09-25T23:44:02.262Z,14.20
2017-09-25T23:46:29.754Z,16.93
2017-09-25T23:48:57.993Z,13.50
2017-09-25T23:51:25.468Z,20.57
2017-09-25T23:53:52.965Z,21.03
2017-09-25T23:56:20.436Z,23.20
2017-09-25T23:58:47.908Z,16.03
